sensor_id;sensor_type;location;lat;lon;timestamp;temperature;humidity
9215;DHT22;4642;51.364;6.788;2023-08-07T00:00:17;13.30;99.90
9215;DHT22;4642;51.364;6.788;2023-08-07T00:02:42;13.30;99.90
9215;DHT22;4642;51.364;6.788;2023-08-07T00:05:08;13.30;99.90
9215;DHT22;4642;51.364;6.788;2023-08-07T00:07:34;13.40;99.90
9215;DHT22;4642;51.364;6.788;2023-08-07T00:09:59;13.40;99.90
9215;DHT22;4642;51.364;6.788;2023-08-07T00:12:26;13.50;99.90
9215;DHT22;4642;51.364;6.788;2023-08-07T00:14:52;13.40;99.90
9215;DHT22;4642;51.364;6.788;2023-08-07T00:17:18;13.40;99.90
9215;DHT22;4642;51.364;6.788;2023-08-07T00:19:43;13.40;99.90
9215;DHT22;4642;51.364;6.788;2023-08-07T00:22:09;13.40;99.90
9215;DHT22;4642;51.364;6.788;2023-08-07T00:24:34;13.40;99.90
9215;DHT22;4642;51.364;6.788;2023-08-07T00:27:01;13.40;99.90
9215;DHT22;4642;51.364;6.788;2023-08-07T00:29:26;13.40;99.90
9215;DHT22;4642;51.364;6.788;2023-08-07T00:31:52;13.40;99.90
9215;DHT22;4642;51.364;6.788;2023-08-07T00:34:18;13.40;99.90
9215;DHT22;4642;51.364;6.788;2023-08-07T00:36:43;13.50;99.90
9215;DHT22;4642;51.364;6.788;2023-08-07T00:39:09;13.50;99.90
9215;DHT22;4642;51.364;6.788;2023-08-07T00:41:34;13.40;99.90
9215;DHT22;4642;51.364;6.788;2023-08-07T00:44:00;13.50;99.90
9215;DHT22;4642;51.364;6.788;2023-08-07T00:46:26;13.50;99.90
9215;DHT22;4642;51.364;6.788;2023-08-07T00:48:53;13.50;99.90
9215;DHT22;4642;51.364;6.788;2023-08-07T00:51:20;13.50;99.90
9215;DHT22;4642;51.364;6.788;2023-08-07T00:53:46;13.50;99.90
9215;DHT22;4642;51.364;6.788;2023-08-07T00:56:12;13.50;99.90
9215;DHT22;4642;51.364;6.788;2023-08-07T00:58:38;13.50;99.90
9215;DHT22;4642;51.364;6.788;2023-08-07T01:01:05;13.50;99.90
9215;DHT22;4642;51.364;6.788;2023-08-07T01:03:31;13.60;99.90
9215;DHT22;4642;51.364;6.788;2023-08-07T01:05:56;13.50;99.90
9215;DHT22;4642;51.364;6.788;2023-08-07T01:08:23;13.50;99.90
9215;DHT22;4642;51.364;6.788;2023-08-07T01:16:24;13.50;99.90
9215;DHT22;4642;51.364;6.788;2023-08-07T01:18:51;13.40;99.90
9215;DHT22;4642;51.364;6.788;2023-08-07T01:21:19;13.40;99.90
9215;DHT22;4642;51.364;6.788;2023-08-07T01:23:48;13.40;99.90
9215;DHT22;4642;51.364;6.788;2023-08-07T01:26:18;13.40;99.90
9215;DHT22;4642;51.364;6.788;2023-08-07T01:29:06;13.40;99.90
9215;DHT22;4642;51.364;6.788;2023-08-07T01:31:38;13.30;99.90
9215;DHT22;4642;51.364;6.788;2023-08-07T01:34:05;13.30;99.90
9215;DHT22;4642;51.364;6.788;2023-08-07T01:36:33;13.30;99.90
9215;DHT22;4642;51.364;6.788;2023-08-07T01:39:00;13.30;99.90
9215;DHT22;4642;51.364;6.788;2023-08-07T01:41:27;13.30;99.90
9215;DHT22;4642;51.364;6.788;2023-08-07T01:43:54;13.30;99.90
9215;DHT22;4642;51.364;6.788;2023-08-07T01:46:20;13.30;99.90
9215;DHT22;4642;51.364;6.788;2023-08-07T01:48:46;13.30;99.90
9215;DHT22;4642;51.364;6.788;2023-08-07T01:51:12;13.20;99.90
9215;DHT22;4642;51.364;6.788;2023-08-07T01:53:37;13.30;99.90
9215;DHT22;4642;51.364;6.788;2023-08-07T01:56:03;13.60;99.90
9215;DHT22;4642;51.364;6.788;2023-08-07T01:58:29;13.20;99.90
9215;DHT22;4642;51.364;6.788;2023-08-07T02:00:54;13.20;99.90
9215;DHT22;4642;51.364;6.788;2023-08-07T02:03:20;13.20;99.90
9215;DHT22;4642;51.364;6.788;2023-08-07T02:05:46;13.10;99.90
9215;DHT22;4642;51.364;6.788;2023-08-07T02:08:12;13.10;99.90
9215;DHT22;4642;51.364;6.788;2023-08-07T02:10:38;13.20;99.90
9215;DHT22;4642;51.364;6.788;2023-08-07T02:13:04;13.10;99.90
9215;DHT22;4642;51.364;6.788;2023-08-07T02:15:29;13.10;99.90
9215;DHT22;4642;51.364;6.788;2023-08-07T02:17:55;13.10;99.90
9215;DHT22;4642;51.364;6.788;2023-08-07T02:20:20;13.00;99.90
9215;DHT22;4642;51.364;6.788;2023-08-07T02:22:46;13.10;99.90
9215;DHT22;4642;51.364;6.788;2023-08-07T02:25:11;13.10;99.90
9215;DHT22;4642;51.364;6.788;2023-08-07T02:27:37;13.00;99.90
9215;DHT22;4642;51.364;6.788;2023-08-07T02:30:03;13.10;99.90
9215;DHT22;4642;51.364;6.788;2023-08-07T02:32:29;13.10;99.90
9215;DHT22;4642;51.364;6.788;2023-08-07T02:34:55;13.10;99.90
9215;DHT22;4642;51.364;6.788;2023-08-07T02:37:20;13.10;99.90
9215;DHT22;4642;51.364;6.788;2023-08-07T02:39:46;13.10;99.90
9215;DHT22;4642;51.364;6.788;2023-08-07T02:42:11;13.10;99.90
9215;DHT22;4642;51.364;6.788;2023-08-07T02:44:37;13.10;99.90
9215;DHT22;4642;51.364;6.788;2023-08-07T02:47:03;13.10;99.90
9215;DHT22;4642;51.364;6.788;2023-08-07T02:49:28;13.10;99.90
9215;DHT22;4642;51.364;6.788;2023-08-07T02:51:54;13.10;99.90
9215;DHT22;4642;51.364;6.788;2023-08-07T02:54:20;13.10;99.90
9215;DHT22;4642;51.364;6.788;2023-08-07T02:56:45;13.10;99.90
9215;DHT22;4642;51.364;6.788;2023-08-07T02:59:11;13.10;99.90
9215;DHT22;4642;51.364;6.788;2023-08-07T03:01:36;13.00;99.90
9215;DHT22;4642;51.364;6.788;2023-08-07T03:04:02;13.00;99.90
9215;DHT22;4642;51.364;6.788;2023-08-07T03:06:28;13.00;99.90
9215;DHT22;4642;51.364;6.788;2023-08-07T03:08:53;13.00;99.90
9215;DHT22;4642;51.364;6.788;2023-08-07T03:11:19;13.10;99.90
9215;DHT22;4642;51.364;6.788;2023-08-07T03:13:44;13.10;99.90
9215;DHT22;4642;51.364;6.788;2023-08-07T03:16:10;13.00;99.90
9215;DHT22;4642;51.364;6.788;2023-08-07T03:18:35;13.10;99.90
9215;DHT22;4642;51.364;6.788;2023-08-07T03:21:01;13.10;99.90
9215;DHT22;4642;51.364;6.788;2023-08-07T03:23:27;13.10;99.90
9215;DHT22;4642;51.364;6.788;2023-08-07T03:26:10;13.10;99.90
9215;DHT22;4642;51.364;6.788;2023-08-07T03:28:36;13.10;99.90
9215;DHT22;4642;51.364;6.788;2023-08-07T03:31:03;13.10;99.90
9215;DHT22;4642;51.364;6.788;2023-08-07T03:33:28;13.10;99.90
9215;DHT22;4642;51.364;6.788;2023-08-07T03:35:54;13.10;99.90
9215;DHT22;4642;51.364;6.788;2023-08-07T03:38:20;13.10;99.90
9215;DHT22;4642;51.364;6.788;2023-08-07T03:40:45;13.00;99.90
9215;DHT22;4642;51.364;6.788;2023-08-07T03:43:11;13.00;99.90
9215;DHT22;4642;51.364;6.788;2023-08-07T03:45:36;13.00;99.90
9215;DHT22;4642;51.364;6.788;2023-08-07T03:48:02;13.00;99.90
9215;DHT22;4642;51.364;6.788;2023-08-07T03:50:27;13.10;99.90
9215;DHT22;4642;51.364;6.788;2023-08-07T03:52:55;13.00;99.90
9215;DHT22;4642;51.364;6.788;2023-08-07T03:55:20;13.00;99.90
9215;DHT22;4642;51.364;6.788;2023-08-07T03:57:46;13.10;99.90
9215;DHT22;4642;51.364;6.788;2023-08-07T04:00:12;13.10;99.90
9215;DHT22;4642;51.364;6.788;2023-08-07T04:02:38;13.10;99.90
9215;DHT22;4642;51.364;6.788;2023-08-07T04:05:04;13.10;99.90
9215;DHT22;4642;51.364;6.788;2023-08-07T04:07:30;13.20;99.90
9215;DHT22;4642;51.364;6.788;2023-08-07T04:09:55;13.20;99.90
9215;DHT22;4642;51.364;6.788;2023-08-07T04:12:21;13.10;99.90
9215;DHT22;4642;51.364;6.788;2023-08-07T04:14:46;13.10;99.90
9215;DHT22;4642;51.364;6.788;2023-08-07T04:17:12;13.10;99.90
9215;DHT22;4642;51.364;6.788;2023-08-07T04:19:37;13.10;99.90
9215;DHT22;4642;51.364;6.788;2023-08-07T04:22:03;13.20;99.90
9215;DHT22;4642;51.364;6.788;2023-08-07T04:24:28;13.10;99.90
9215;DHT22;4642;51.364;6.788;2023-08-07T04:26:54;13.10;99.90
9215;DHT22;4642;51.364;6.788;2023-08-07T04:29:20;13.10;99.90
9215;DHT22;4642;51.364;6.788;2023-08-07T04:31:45;13.10;99.90
9215;DHT22;4642;51.364;6.788;2023-08-07T04:34:11;13.10;99.90
9215;DHT22;4642;51.364;6.788;2023-08-07T04:36:37;13.10;99.90
9215;DHT22;4642;51.364;6.788;2023-08-07T04:39:03;13.10;99.90
9215;DHT22;4642;51.364;6.788;2023-08-07T04:41:29;13.10;99.90
9215;DHT22;4642;51.364;6.788;2023-08-07T04:43:54;13.10;99.90
9215;DHT22;4642;51.364;6.788;2023-08-07T04:46:20;13.10;99.90
9215;DHT22;4642;51.364;6.788;2023-08-07T04:48:45;13.10;99.90
9215;DHT22;4642;51.364;6.788;2023-08-07T04:51:12;13.10;99.90
9215;DHT22;4642;51.364;6.788;2023-08-07T04:53:38;13.10;99.90
9215;DHT22;4642;51.364;6.788;2023-08-07T04:56:04;13.10;99.90
9215;DHT22;4642;51.364;6.788;2023-08-07T04:58:29;13.10;99.90
9215;DHT22;4642;51.364;6.788;2023-08-07T05:00:58;13.10;99.90
9215;DHT22;4642;51.364;6.788;2023-08-07T05:03:24;13.10;99.90
9215;DHT22;4642;51.364;6.788;2023-08-07T05:05:50;13.00;99.90
9215;DHT22;4642;51.364;6.788;2023-08-07T05:08:16;13.00;99.90
9215;DHT22;4642;51.364;6.788;2023-08-07T05:10:42;13.00;99.90
9215;DHT22;4642;51.364;6.788;2023-08-07T05:13:08;13.00;99.90
9215;DHT22;4642;51.364;6.788;2023-08-07T05:15:33;13.00;99.90
9215;DHT22;4642;51.364;6.788;2023-08-07T05:17:59;13.00;99.90
9215;DHT22;4642;51.364;6.788;2023-08-07T05:20:25;13.00;99.90
9215;DHT22;4642;51.364;6.788;2023-08-07T05:22:50;13.00;99.90
9215;DHT22;4642;51.364;6.788;2023-08-07T05:25:16;13.10;99.90
9215;DHT22;4642;51.364;6.788;2023-08-07T05:27:45;13.00;99.90
9215;DHT22;4642;51.364;6.788;2023-08-07T05:30:11;13.00;99.90
9215;DHT22;4642;51.364;6.788;2023-08-07T05:32:37;13.00;99.90
9215;DHT22;4642;51.364;6.788;2023-08-07T05:35:05;13.00;99.90
9215;DHT22;4642;51.364;6.788;2023-08-07T05:37:30;13.00;99.90
9215;DHT22;4642;51.364;6.788;2023-08-07T05:39:57;12.90;99.90
9215;DHT22;4642;51.364;6.788;2023-08-07T05:42:23;12.90;99.90
9215;DHT22;4642;51.364;6.788;2023-08-07T05:44:48;12.90;99.90
9215;DHT22;4642;51.364;6.788;2023-08-07T05:47:14;12.90;99.90
9215;DHT22;4642;51.364;6.788;2023-08-07T05:49:39;12.90;99.90
9215;DHT22;4642;51.364;6.788;2023-08-07T05:52:05;12.90;99.90
9215;DHT22;4642;51.364;6.788;2023-08-07T05:54:31;12.90;99.90
9215;DHT22;4642;51.364;6.788;2023-08-07T05:56:57;12.80;99.90
9215;DHT22;4642;51.364;6.788;2023-08-07T05:59:22;12.90;99.90
9215;DHT22;4642;51.364;6.788;2023-08-07T06:01:48;12.90;99.90
9215;DHT22;4642;51.364;6.788;2023-08-07T06:04:13;12.80;99.90
9215;DHT22;4642;51.364;6.788;2023-08-07T06:06:39;12.80;99.90
9215;DHT22;4642;51.364;6.788;2023-08-07T06:09:05;12.90;99.90
9215;DHT22;4642;51.364;6.788;2023-08-07T06:11:32;12.90;99.90
9215;DHT22;4642;51.364;6.788;2023-08-07T06:13:58;12.90;99.90
9215;DHT22;4642;51.364;6.788;2023-08-07T06:16:23;12.90;99.90
9215;DHT22;4642;51.364;6.788;2023-08-07T06:18:49;12.90;99.90
9215;DHT22;4642;51.364;6.788;2023-08-07T06:21:15;12.90;99.90
9215;DHT22;4642;51.364;6.788;2023-08-07T06:23:40;12.90;99.90
9215;DHT22;4642;51.364;6.788;2023-08-07T06:26:06;13.00;99.90
9215;DHT22;4642;51.364;6.788;2023-08-07T06:28:33;13.10;99.90
9215;DHT22;4642;51.364;6.788;2023-08-07T06:31:04;13.00;99.90
9215;DHT22;4642;51.364;6.788;2023-08-07T06:33:30;13.10;99.90
9215;DHT22;4642;51.364;6.788;2023-08-07T06:35:57;13.00;99.90
9215;DHT22;4642;51.364;6.788;2023-08-07T06:38:22;13.10;99.90
9215;DHT22;4642;51.364;6.788;2023-08-07T06:40:48;13.10;99.90
9215;DHT22;4642;51.364;6.788;2023-08-07T06:43:13;13.10;99.90
9215;DHT22;4642;51.364;6.788;2023-08-07T06:45:39;13.20;99.90
9215;DHT22;4642;51.364;6.788;2023-08-07T06:48:04;13.20;99.90
9215;DHT22;4642;51.364;6.788;2023-08-07T06:50:30;13.20;99.90
9215;DHT22;4642;51.364;6.788;2023-08-07T06:52:56;13.20;99.90
9215;DHT22;4642;51.364;6.788;2023-08-07T06:55:22;13.20;99.90
9215;DHT22;4642;51.364;6.788;2023-08-07T06:57:47;13.10;99.90
9215;DHT22;4642;51.364;6.788;2023-08-07T07:00:13;13.30;99.90
9215;DHT22;4642;51.364;6.788;2023-08-07T07:02:40;13.30;99.90
9215;DHT22;4642;51.364;6.788;2023-08-07T07:05:05;13.30;99.90
9215;DHT22;4642;51.364;6.788;2023-08-07T07:07:31;13.30;99.90
9215;DHT22;4642;51.364;6.788;2023-08-07T07:09:57;13.30;99.90
9215;DHT22;4642;51.364;6.788;2023-08-07T07:12:26;13.30;99.90
9215;DHT22;4642;51.364;6.788;2023-08-07T07:14:51;13.30;99.90
9215;DHT22;4642;51.364;6.788;2023-08-07T07:17:17;13.30;99.90
9215;DHT22;4642;51.364;6.788;2023-08-07T07:19:42;13.30;99.90
9215;DHT22;4642;51.364;6.788;2023-08-07T07:22:08;13.30;99.90
9215;DHT22;4642;51.364;6.788;2023-08-07T07:24:34;13.30;99.90
9215;DHT22;4642;51.364;6.788;2023-08-07T07:26:59;13.30;99.90
9215;DHT22;4642;51.364;6.788;2023-08-07T07:29:25;13.30;99.90
9215;DHT22;4642;51.364;6.788;2023-08-07T07:31:50;13.30;99.90
9215;DHT22;4642;51.364;6.788;2023-08-07T07:34:16;13.30;99.90
9215;DHT22;4642;51.364;6.788;2023-08-07T07:36:41;13.30;99.90
9215;DHT22;4642;51.364;6.788;2023-08-07T07:39:07;13.30;99.90
9215;DHT22;4642;51.364;6.788;2023-08-07T07:41:32;13.30;99.90
9215;DHT22;4642;51.364;6.788;2023-08-07T07:43:58;13.30;99.90
9215;DHT22;4642;51.364;6.788;2023-08-07T07:46:24;13.30;99.90
9215;DHT22;4642;51.364;6.788;2023-08-07T07:48:50;13.30;99.90
9215;DHT22;4642;51.364;6.788;2023-08-07T07:51:15;13.40;99.90
9215;DHT22;4642;51.364;6.788;2023-08-07T07:53:40;13.40;99.90
9215;DHT22;4642;51.364;6.788;2023-08-07T07:56:06;13.40;99.90
9215;DHT22;4642;51.364;6.788;2023-08-07T07:58:32;13.40;99.90
9215;DHT22;4642;51.364;6.788;2023-08-07T08:00:57;13.50;99.90
9215;DHT22;4642;51.364;6.788;2023-08-07T08:03:23;13.50;99.90
9215;DHT22;4642;51.364;6.788;2023-08-07T08:05:52;13.60;99.90
9215;DHT22;4642;51.364;6.788;2023-08-07T08:08:18;13.60;99.90
9215;DHT22;4642;51.364;6.788;2023-08-07T08:10:44;13.70;99.90
9215;DHT22;4642;51.364;6.788;2023-08-07T08:13:10;13.70;99.90
9215;DHT22;4642;51.364;6.788;2023-08-07T08:15:36;13.80;99.90
9215;DHT22;4642;51.364;6.788;2023-08-07T08:18:02;13.80;99.90
9215;DHT22;4642;51.364;6.788;2023-08-07T08:20:27;13.90;99.90
9215;DHT22;4642;51.364;6.788;2023-08-07T08:22:55;13.90;99.90
9215;DHT22;4642;51.364;6.788;2023-08-07T08:25:20;13.90;99.90
9215;DHT22;4642;51.364;6.788;2023-08-07T08:27:46;13.90;99.90
9215;DHT22;4642;51.364;6.788;2023-08-07T08:30:12;13.90;99.90
9215;DHT22;4642;51.364;6.788;2023-08-07T08:32:38;13.90;99.90
9215;DHT22;4642;51.364;6.788;2023-08-07T08:35:05;13.90;99.90
9215;DHT22;4642;51.364;6.788;2023-08-07T08:37:31;13.90;99.90
9215;DHT22;4642;51.364;6.788;2023-08-07T08:39:56;13.90;99.90
9215;DHT22;4642;51.364;6.788;2023-08-07T08:42:22;14.00;99.90
9215;DHT22;4642;51.364;6.788;2023-08-07T08:44:57;14.00;99.90
9215;DHT22;4642;51.364;6.788;2023-08-07T08:47:25;14.10;99.90
9215;DHT22;4642;51.364;6.788;2023-08-07T08:50:02;14.20;99.90
9215;DHT22;4642;51.364;6.788;2023-08-07T08:52:28;14.20;99.90
9215;DHT22;4642;51.364;6.788;2023-08-07T08:54:57;14.30;99.90
9215;DHT22;4642;51.364;6.788;2023-08-07T08:57:24;14.40;99.90
9215;DHT22;4642;51.364;6.788;2023-08-07T08:59:50;14.50;99.90
9215;DHT22;4642;51.364;6.788;2023-08-07T09:02:17;14.50;99.90
9215;DHT22;4642;51.364;6.788;2023-08-07T09:04:44;14.50;99.90
9215;DHT22;4642;51.364;6.788;2023-08-07T09:07:10;14.50;99.90
9215;DHT22;4642;51.364;6.788;2023-08-07T09:09:37;14.60;99.90
9215;DHT22;4642;51.364;6.788;2023-08-07T09:12:05;14.60;99.90
9215;DHT22;4642;51.364;6.788;2023-08-07T09:14:33;14.70;99.90
9215;DHT22;4642;51.364;6.788;2023-08-07T09:17:00;14.70;99.90
9215;DHT22;4642;51.364;6.788;2023-08-07T09:19:27;14.80;99.90
9215;DHT22;4642;51.364;6.788;2023-08-07T09:21:52;14.80;99.90
9215;DHT22;4642;51.364;6.788;2023-08-07T09:24:18;14.80;99.90
9215;DHT22;4642;51.364;6.788;2023-08-07T09:26:47;14.90;99.90
9215;DHT22;4642;51.364;6.788;2023-08-07T09:29:13;14.90;99.90
9215;DHT22;4642;51.364;6.788;2023-08-07T09:31:39;14.80;99.90
9215;DHT22;4642;51.364;6.788;2023-08-07T09:34:04;14.70;99.90
9215;DHT22;4642;51.364;6.788;2023-08-07T09:36:34;14.60;99.90
9215;DHT22;4642;51.364;6.788;2023-08-07T09:39:03;14.60;99.90
9215;DHT22;4642;51.364;6.788;2023-08-07T09:41:30;14.60;99.90
9215;DHT22;4642;51.364;6.788;2023-08-07T09:43:56;14.60;99.90
9215;DHT22;4642;51.364;6.788;2023-08-07T09:46:22;14.70;99.90
9215;DHT22;4642;51.364;6.788;2023-08-07T09:48:48;14.90;99.90
9215;DHT22;4642;51.364;6.788;2023-08-07T09:51:14;14.90;99.90
9215;DHT22;4642;51.364;6.788;2023-08-07T09:53:39;15.00;99.90
9215;DHT22;4642;51.364;6.788;2023-08-07T09:56:06;15.00;99.90
9215;DHT22;4642;51.364;6.788;2023-08-07T09:58:32;15.00;99.90
9215;DHT22;4642;51.364;6.788;2023-08-07T10:01:03;14.90;99.90
9215;DHT22;4642;51.364;6.788;2023-08-07T10:03:29;14.90;99.90
9215;DHT22;4642;51.364;6.788;2023-08-07T10:05:55;15.00;99.90
9215;DHT22;4642;51.364;6.788;2023-08-07T10:08:22;15.00;99.90
9215;DHT22;4642;51.364;6.788;2023-08-07T10:10:47;15.20;99.90
9215;DHT22;4642;51.364;6.788;2023-08-07T10:13:13;15.30;99.90
9215;DHT22;4642;51.364;6.788;2023-08-07T10:15:39;15.40;99.90
9215;DHT22;4642;51.364;6.788;2023-08-07T10:18:07;15.60;99.90
9215;DHT22;4642;51.364;6.788;2023-08-07T10:20:33;15.80;99.90
9215;DHT22;4642;51.364;6.788;2023-08-07T10:23:09;16.00;99.90
9215;DHT22;4642;51.364;6.788;2023-08-07T10:25:38;16.10;99.90
9215;DHT22;4642;51.364;6.788;2023-08-07T10:28:06;16.20;99.90
9215;DHT22;4642;51.364;6.788;2023-08-07T10:30:34;16.40;99.90
9215;DHT22;4642;51.364;6.788;2023-08-07T10:33:02;16.50;99.90
9215;DHT22;4642;51.364;6.788;2023-08-07T10:35:32;16.60;99.90
9215;DHT22;4642;51.364;6.788;2023-08-07T10:38:09;16.70;99.90
9215;DHT22;4642;51.364;6.788;2023-08-07T10:43:38;16.70;99.90
9215;DHT22;4642;51.364;6.788;2023-08-07T10:46:20;16.70;99.90
9215;DHT22;4642;51.364;6.788;2023-08-07T10:48:54;16.70;99.90
9215;DHT22;4642;51.364;6.788;2023-08-07T10:51:28;16.70;99.90
9215;DHT22;4642;51.364;6.788;2023-08-07T10:53:55;16.70;99.90
9215;DHT22;4642;51.364;6.788;2023-08-07T10:56:35;16.70;99.90
9215;DHT22;4642;51.364;6.788;2023-08-07T10:59:09;16.60;99.90
9215;DHT22;4642;51.364;6.788;2023-08-07T11:01:41;16.70;99.90
9215;DHT22;4642;51.364;6.788;2023-08-07T11:04:12;16.60;99.90
9215;DHT22;4642;51.364;6.788;2023-08-07T11:06:40;16.60;99.90
9215;DHT22;4642;51.364;6.788;2023-08-07T11:09:07;16.70;99.90
9215;DHT22;4642;51.364;6.788;2023-08-07T11:11:38;16.80;99.90
9215;DHT22;4642;51.364;6.788;2023-08-07T11:14:15;16.90;99.90
9215;DHT22;4642;51.364;6.788;2023-08-07T11:16:42;17.00;37.00
9215;DHT22;4642;51.364;6.788;2023-08-07T11:19:08;17.10;1.00
9215;DHT22;4642;51.364;6.788;2023-08-07T11:21:34;17.20;1.00
9215;DHT22;4642;51.364;6.788;2023-08-07T11:24:00;17.20;99.90
9215;DHT22;4642;51.364;6.788;2023-08-07T11:26:26;17.40;99.90
9215;DHT22;4642;51.364;6.788;2023-08-07T11:28:56;17.40;99.90
9215;DHT22;4642;51.364;6.788;2023-08-07T11:31:23;17.60;1.00
9215;DHT22;4642;51.364;6.788;2023-08-07T11:33:55;17.50;99.90
9215;DHT22;4642;51.364;6.788;2023-08-07T11:36:21;17.30;1.00
9215;DHT22;4642;51.364;6.788;2023-08-07T11:38:47;17.40;1.00
9215;DHT22;4642;51.364;6.788;2023-08-07T11:41:15;17.40;99.90
9215;DHT22;4642;51.364;6.788;2023-08-07T11:43:42;17.40;1.00
9215;DHT22;4642;51.364;6.788;2023-08-07T11:46:10;17.40;99.90
9215;DHT22;4642;51.364;6.788;2023-08-07T11:48:40;17.50;1.00
9215;DHT22;4642;51.364;6.788;2023-08-07T11:51:06;17.60;99.90
9215;DHT22;4642;51.364;6.788;2023-08-07T11:53:36;17.50;90.40
9215;DHT22;4642;51.364;6.788;2023-08-07T11:56:09;17.60;99.90
9215;DHT22;4642;51.364;6.788;2023-08-07T11:58:40;17.70;29.70
9215;DHT22;4642;51.364;6.788;2023-08-07T12:01:09;17.90;1.00
9215;DHT22;4642;51.364;6.788;2023-08-07T12:03:37;17.90;1.00
9215;DHT22;4642;51.364;6.788;2023-08-07T12:06:07;17.80;1.00
9215;DHT22;4642;51.364;6.788;2023-08-07T12:08:35;17.70;99.90
9215;DHT22;4642;51.364;6.788;2023-08-07T12:11:09;17.60;1.00
9215;DHT22;4642;51.364;6.788;2023-08-07T12:13:42;17.70;1.00
9215;DHT22;4642;51.364;6.788;2023-08-07T12:16:08;17.70;1.00
9215;DHT22;4642;51.364;6.788;2023-08-07T12:18:35;18.00;99.90
9215;DHT22;4642;51.364;6.788;2023-08-07T12:21:06;18.10;1.00
9215;DHT22;4642;51.364;6.788;2023-08-07T12:23:36;18.10;99.90
9215;DHT22;4642;51.364;6.788;2023-08-07T12:26:03;18.00;99.90
9215;DHT22;4642;51.364;6.788;2023-08-07T12:28:28;18.00;1.00
9215;DHT22;4642;51.364;6.788;2023-08-07T12:30:54;18.00;26.90
9215;DHT22;4642;51.364;6.788;2023-08-07T12:33:21;18.10;16.20
9215;DHT22;4642;51.364;6.788;2023-08-07T12:35:47;18.20;99.90
9215;DHT22;4642;51.364;6.788;2023-08-07T12:38:12;18.20;1.00
9215;DHT22;4642;51.364;6.788;2023-08-07T12:40:42;18.40;1.00
9215;DHT22;4642;51.364;6.788;2023-08-07T12:43:08;18.40;99.90
9215;DHT22;4642;51.364;6.788;2023-08-07T12:45:34;18.60;1.00
9215;DHT22;4642;51.364;6.788;2023-08-07T12:48:00;18.60;1.00
9215;DHT22;4642;51.364;6.788;2023-08-07T12:50:26;18.60;1.00
9215;DHT22;4642;51.364;6.788;2023-08-07T12:52:52;18.80;1.00
9215;DHT22;4642;51.364;6.788;2023-08-07T12:55:17;18.80;99.90
9215;DHT22;4642;51.364;6.788;2023-08-07T12:57:43;18.80;99.90
9215;DHT22;4642;51.364;6.788;2023-08-07T13:00:10;18.90;1.00
9215;DHT22;4642;51.364;6.788;2023-08-07T13:02:43;18.80;99.90
9215;DHT22;4642;51.364;6.788;2023-08-07T13:05:10;18.90;1.00
9215;DHT22;4642;51.364;6.788;2023-08-07T13:07:36;18.90;99.90
9215;DHT22;4642;51.364;6.788;2023-08-07T13:10:06;18.90;99.90
9215;DHT22;4642;51.364;6.788;2023-08-07T13:12:36;18.80;99.90
9215;DHT22;4642;51.364;6.788;2023-08-07T13:15:03;18.90;99.90
9215;DHT22;4642;51.364;6.788;2023-08-07T13:17:30;18.90;99.90
9215;DHT22;4642;51.364;6.788;2023-08-07T13:19:55;19.00;1.00
9215;DHT22;4642;51.364;6.788;2023-08-07T13:22:21;18.90;99.90
9215;DHT22;4642;51.364;6.788;2023-08-07T13:24:47;18.90;99.90
9215;DHT22;4642;51.364;6.788;2023-08-07T13:27:12;18.90;1.00
9215;DHT22;4642;51.364;6.788;2023-08-07T13:29:38;18.90;99.90
9215;DHT22;4642;51.364;6.788;2023-08-07T13:32:04;19.00;99.90
9215;DHT22;4642;51.364;6.788;2023-08-07T13:34:35;19.10;99.90
9215;DHT22;4642;51.364;6.788;2023-08-07T13:37:01;19.00;99.90
9215;DHT22;4642;51.364;6.788;2023-08-07T13:39:26;19.00;99.90
9215;DHT22;4642;51.364;6.788;2023-08-07T13:41:53;19.10;99.90
9215;DHT22;4642;51.364;6.788;2023-08-07T13:44:19;19.20;99.90
9215;DHT22;4642;51.364;6.788;2023-08-07T13:46:45;19.20;99.90
9215;DHT22;4642;51.364;6.788;2023-08-07T13:49:11;19.20;99.90
9215;DHT22;4642;51.364;6.788;2023-08-07T13:51:36;19.40;99.90
9215;DHT22;4642;51.364;6.788;2023-08-07T13:54:02;19.60;55.80
9215;DHT22;4642;51.364;6.788;2023-08-07T13:56:27;19.70;99.90
9215;DHT22;4642;51.364;6.788;2023-08-07T13:58:53;19.90;99.90
9215;DHT22;4642;51.364;6.788;2023-08-07T14:01:20;20.00;93.60
9215;DHT22;4642;51.364;6.788;2023-08-07T14:03:45;20.10;92.10
9215;DHT22;4642;51.364;6.788;2023-08-07T14:06:11;20.30;1.00
9215;DHT22;4642;51.364;6.788;2023-08-07T14:08:36;20.10;1.00
9215;DHT22;4642;51.364;6.788;2023-08-07T14:11:02;20.10;1.00
9215;DHT22;4642;51.364;6.788;2023-08-07T14:13:28;20.10;1.00
9215;DHT22;4642;51.364;6.788;2023-08-07T14:15:54;20.00;1.00
9215;DHT22;4642;51.364;6.788;2023-08-07T14:18:19;19.90;1.00
9215;DHT22;4642;51.364;6.788;2023-08-07T14:20:45;19.80;25.20
9215;DHT22;4642;51.364;6.788;2023-08-07T14:23:10;19.80;1.00
9215;DHT22;4642;51.364;6.788;2023-08-07T14:25:36;19.60;1.00
9215;DHT22;4642;51.364;6.788;2023-08-07T14:28:03;19.70;1.00
9215;DHT22;4642;51.364;6.788;2023-08-07T14:30:29;19.90;1.00
9215;DHT22;4642;51.364;6.788;2023-08-07T14:32:54;19.90;1.00
9215;DHT22;4642;51.364;6.788;2023-08-07T14:35:20;19.90;1.00
9215;DHT22;4642;51.364;6.788;2023-08-07T14:37:45;20.20;1.00
9215;DHT22;4642;51.364;6.788;2023-08-07T14:40:13;20.20;1.00
9215;DHT22;4642;51.364;6.788;2023-08-07T14:42:39;20.40;1.00
9215;DHT22;4642;51.364;6.788;2023-08-07T14:45:05;20.50;1.00
9215;DHT22;4642;51.364;6.788;2023-08-07T14:47:31;20.50;1.00
9215;DHT22;4642;51.364;6.788;2023-08-07T14:49:56;20.40;1.00
9215;DHT22;4642;51.364;6.788;2023-08-07T14:52:22;20.10;1.00
9215;DHT22;4642;51.364;6.788;2023-08-07T14:54:47;20.10;1.00
9215;DHT22;4642;51.364;6.788;2023-08-07T14:57:13;20.00;1.00
9215;DHT22;4642;51.364;6.788;2023-08-07T14:59:38;19.90;1.00
9215;DHT22;4642;51.364;6.788;2023-08-07T15:02:05;19.80;1.00
9215;DHT22;4642;51.364;6.788;2023-08-07T15:04:31;19.90;1.00
9215;DHT22;4642;51.364;6.788;2023-08-07T15:06:57;19.90;1.00
9215;DHT22;4642;51.364;6.788;2023-08-07T15:09:23;19.80;1.00
9215;DHT22;4642;51.364;6.788;2023-08-07T15:11:48;19.50;1.00
9215;DHT22;4642;51.364;6.788;2023-08-07T15:14:15;19.40;70.10
9215;DHT22;4642;51.364;6.788;2023-08-07T15:16:41;19.30;99.90
9215;DHT22;4642;51.364;6.788;2023-08-07T15:19:06;19.30;92.60
9215;DHT22;4642;51.364;6.788;2023-08-07T15:21:32;19.30;99.90
9215;DHT22;4642;51.364;6.788;2023-08-07T15:23:58;19.20;99.90
9215;DHT22;4642;51.364;6.788;2023-08-07T15:26:23;19.30;99.90
9215;DHT22;4642;51.364;6.788;2023-08-07T15:28:49;19.20;99.90
9215;DHT22;4642;51.364;6.788;2023-08-07T15:31:15;19.10;99.90
9215;DHT22;4642;51.364;6.788;2023-08-07T15:33:40;19.00;99.90
9215;DHT22;4642;51.364;6.788;2023-08-07T15:36:07;19.10;99.90
9215;DHT22;4642;51.364;6.788;2023-08-07T15:38:33;19.20;99.90
9215;DHT22;4642;51.364;6.788;2023-08-07T15:41:01;19.30;99.90
9215;DHT22;4642;51.364;6.788;2023-08-07T15:43:26;19.50;1.00
9215;DHT22;4642;51.364;6.788;2023-08-07T15:45:52;19.50;99.90
9215;DHT22;4642;51.364;6.788;2023-08-07T15:48:21;19.40;1.00
9215;DHT22;4642;51.364;6.788;2023-08-07T15:50:47;19.30;1.00
9215;DHT22;4642;51.364;6.788;2023-08-07T15:53:13;19.10;1.00
9215;DHT22;4642;51.364;6.788;2023-08-07T15:55:38;19.00;1.00
9215;DHT22;4642;51.364;6.788;2023-08-07T15:58:05;18.80;99.90
9215;DHT22;4642;51.364;6.788;2023-08-07T16:00:33;18.70;99.90
9215;DHT22;4642;51.364;6.788;2023-08-07T16:03:01;18.50;1.00
9215;DHT22;4642;51.364;6.788;2023-08-07T16:05:27;18.60;16.50
9215;DHT22;4642;51.364;6.788;2023-08-07T16:07:53;18.80;99.90